Time;durP1;ratioP1;P1;durP2;ratioP2;P2;SDS_P1;SDS_P2;PMS_P1;PMS_P2;Temp;Humidity;BMP_temperature;BMP_pressure;BME280_temperature;BME280_humidity;BME280_pressure;Samples;Min_cycle;Max_cycle;Signal;HPM_P1;HPM_P2
2022/10/30 00:02:06;;;;;;;;;;;14.80;99.90;;;;;;5058058;28;19909;-77
2022/10/30 00:04:31;;;;;;;;;;;14.80;99.90;;;;;;5057820;28;19931;-77
2022/10/30 00:06:57;;;;;;;;;;;14.80;99.90;;;;;;5060674;28;19921;-77
2022/10/30 00:09:22;;;;;;;;;;;14.80;99.90;;;;;;5061762;28;19916;-77
2022/10/30 00:11:48;;;;;;;;;;;14.80;99.90;;;;;;5062040;28;19916;-78
2022/10/30 00:14:14;;;;;;;;;;;14.80;99.90;;;;;;5061967;28;19920;-77
2022/10/30 00:16:39;;;;;;;;;;;14.80;99.90;;;;;;5061821;28;19912;-78
2022/10/30 00:19:05;;;;;;;;;;;14.70;99.90;;;;;;5061828;28;20089;-78
2022/10/30 00:21:31;;;;;;;;;;;14.70;99.90;;;;;;5061861;28;20155;-78
2022/10/30 00:23:56;;;;;;;;;;;14.70;99.90;;;;;;5061879;28;19912;-77
2022/10/30 00:26:24;;;;;;;;;;;14.70;99.90;;;;;;5060224;28;20120;-78
2022/10/30 00:28:51;;;;;;;;;;;14.70;99.90;;;;;;5054456;28;20041;-78
2022/10/30 00:31:16;;;;;;;;;;;14.70;99.90;;;;;;5041388;28;19959;-77
2022/10/30 00:33:42;;;;;;;;;;;14.70;99.90;;;;;;5080902;28;19921;-78
2022/10/30 00:36:08;;;;;;;;;;;14.70;99.90;;;;;;5064998;28;19990;-77
2022/10/30 00:38:33;;;;;;;;;;;14.70;99.90;;;;;;5065206;28;19912;-77
2022/10/30 00:40:59;;;;;;;;;;;14.70;99.90;;;;;;5064931;28;19908;-77
2022/10/30 00:43:35;;;;;;;;;;;14.80;99.90;;;;;;5065200;28;19930;-77
2022/10/30 00:46:20;;;;;;;;;;;14.70;99.90;;;;;;5064026;28;19908;-77
2022/10/30 00:49:06;;;;;;;;;;;14.80;99.90;;;;;;5064146;28;19983;-76
2022/10/30 00:51:32;;;;;;;;;;;14.80;99.90;;;;;;5063903;28;19917;-77
2022/10/30 00:53:59;;;;;;;;;;;14.70;99.90;;;;;;5063934;28;20288;-77
2022/10/30 00:56:24;;;;;;;;;;;14.70;99.90;;;;;;5063038;28;19912;-77
2022/10/30 00:58:53;;;;;;;;;;;14.70;99.90;;;;;;5046870;28;20258;-77
2022/10/30 01:01:20;;;;;;;;;;;14.80;99.90;;;;;;5047263;28;19908;-77
2022/10/30 01:03:46;;;;;;;;;;;14.80;99.90;;;;;;5047243;28;19951;-77
2022/10/30 01:06:11;;;;;;;;;;;14.70;99.90;;;;;;5046721;28;19912;-77
2022/10/30 01:08:37;;;;;;;;;;;14.80;99.90;;;;;;5063536;28;19916;-77
2022/10/30 01:11:03;;;;;;;;;;;14.80;99.90;;;;;;5063407;28;19909;-77
2022/10/30 01:13:28;;;;;;;;;;;14.70;99.90;;;;;;5063369;28;19959;-78
2022/10/30 01:15:57;;;;;;;;;;;14.70;99.90;;;;;;5064473;28;19909;-78
2022/10/30 01:18:41;;;;;;;;;;;14.70;99.90;;;;;;5064241;28;19924;-77
2022/10/30 01:21:30;;;;;;;;;;;14.60;99.90;;;;;;5064529;28;19915;-78
2022/10/30 01:24:27;;;;;;;;;;;14.60;99.90;;;;;;5063380;28;19915;-77
2022/10/30 01:27:17;;;;;;;;;;;14.60;99.90;;;;;;5062797;28;19917;-79
2022/10/30 01:30:04;;;;;;;;;;;14.60;99.90;;;;;;5064486;28;19922;-78
2022/10/30 01:32:58;;;;;;;;;;;14.60;99.90;;;;;;5064360;28;20089;-77
2022/10/30 01:35:30;;;;;;;;;;;14.60;99.90;;;;;;5063083;28;19915;-76
2022/10/30 01:38:08;;;;;;;;;;;14.60;99.90;;;;;;5062748;28;20108;-77
2022/10/30 01:40:35;;;;;;;;;;;14.60;99.90;;;;;;5062761;28;19916;-76
2022/10/30 01:43:00;;;;;;;;;;;14.60;99.90;;;;;;5063138;28;19915;-75
2022/10/30 01:46:04;;;;;;;;;;;14.60;99.90;;;;;;5064079;28;19909;-75
2022/10/30 01:48:44;;;;;;;;;;;14.60;99.90;;;;;;5056797;28;19909;-75
2022/10/30 01:51:33;;;;;;;;;;;14.60;99.90;;;;;;5056570;28;19980;-75
2022/10/30 01:54:20;;;;;;;;;;;14.60;99.90;;;;;;5079391;28;20028;-75
2022/10/30 01:57:07;;;;;;;;;;;14.60;99.90;;;;;;5078855;28;19931;-77
2022/10/30 01:59:36;;;;;;;;;;;14.60;99.90;;;;;;5063858;28;19924;-75
2022/10/30 02:02:02;;;;;;;;;;;14.50;99.90;;;;;;5079465;28;19916;-75
2022/10/30 02:04:28;;;;;;;;;;;14.60;99.90;;;;;;5079291;28;19916;-75
2022/10/30 02:06:54;;;;;;;;;;;14.60;99.90;;;;;;5062303;28;20108;-76
2022/10/30 02:09:19;;;;;;;;;;;14.60;99.90;;;;;;5062595;28;19916;-75
2022/10/30 02:11:45;;;;;;;;;;;14.60;99.90;;;;;;5062272;28;19947;-75
2022/10/30 02:14:10;;;;;;;;;;;14.60;99.90;;;;;;5062433;28;19913;-75
2022/10/30 02:16:38;;;;;;;;;;;14.60;99.90;;;;;;5062240;28;19972;-75
2022/10/30 02:19:05;;;;;;;;;;;14.60;99.90;;;;;;5062346;28;19909;-75
2022/10/30 02:21:31;;;;;;;;;;;14.60;99.90;;;;;;5063508;28;20146;-75
2022/10/30 02:23:56;;;;;;;;;;;14.60;99.90;;;;;;5062206;28;19980;-76
2022/10/30 02:26:22;;;;;;;;;;;14.60;99.90;;;;;;5062818;28;20211;-75
2022/10/30 02:28:47;;;;;;;;;;;14.60;99.90;;;;;;5063334;28;20134;-75
2022/10/30 02:31:13;;;;;;;;;;;14.60;99.90;;;;;;5063354;28;19909;-75
2022/10/30 02:33:43;;;;;;;;;;;14.50;99.90;;;;;;5063124;28;19913;-75
2022/10/30 02:36:09;;;;;;;;;;;14.50;99.90;;;;;;5061816;28;19987;-76
2022/10/30 02:38:34;;;;;;;;;;;14.40;99.90;;;;;;5062017;28;19933;-75
2022/10/30 02:41:00;;;;;;;;;;;14.40;99.90;;;;;;5062804;28;20222;-76
2022/10/30 02:43:25;;;;;;;;;;;14.40;99.90;;;;;;5063083;28;19980;-76
2022/10/30 02:45:51;;;;;;;;;;;14.40;99.90;;;;;;5063028;28;19915;-76
2022/10/30 02:48:17;;;;;;;;;;;14.50;99.90;;;;;;5062621;28;19909;-77
2022/10/30 02:50:42;;;;;;;;;;;14.50;99.90;;;;;;5062859;28;19951;-76
2022/10/30 02:53:08;;;;;;;;;;;14.40;99.90;;;;;;5062438;28;19913;-76
2022/10/30 02:55:34;;;;;;;;;;;14.30;99.90;;;;;;5062535;28;19916;-76
2022/10/30 02:57:59;;;;;;;;;;;14.30;99.90;;;;;;5062371;28;19916;-78
2022/10/30 03:00:25;;;;;;;;;;;14.20;99.90;;;;;;5062600;28;19909;-78
2022/10/30 03:02:54;;;;;;;;;;;14.20;99.90;;;;;;5062696;28;19909;-77
2022/10/30 03:05:20;;;;;;;;;;;14.20;99.90;;;;;;5061423;28;19909;-78
2022/10/30 03:07:47;;;;;;;;;;;14.20;99.90;;;;;;5061202;28;19916;-77
2022/10/30 03:10:13;;;;;;;;;;;14.10;99.90;;;;;;5061112;28;19909;-77
2022/10/30 03:12:39;;;;;;;;;;;14.10;99.90;;;;;;5061387;28;20148;-76
2022/10/30 03:15:05;;;;;;;;;;;14.10;99.90;;;;;;5061464;28;19912;-77
2022/10/30 03:17:31;;;;;;;;;;;14.10;99.90;;;;;;5062142;28;19909;-77
2022/10/30 03:19:56;;;;;;;;;;;14.10;99.90;;;;;;5062497;28;20171;-77
2022/10/30 03:22:22;;;;;;;;;;;14.10;99.90;;;;;;5062466;28;19940;-77
2022/10/30 03:24:47;;;;;;;;;;;14.10;99.90;;;;;;5062440;28;19909;-77
2022/10/30 03:27:13;;;;;;;;;;;14.10;99.90;;;;;;5061895;28;19939;-77
2022/10/30 03:29:39;;;;;;;;;;;14.10;99.90;;;;;;5062464;28;19917;-77
2022/10/30 03:32:08;;;;;;;;;;;14.10;99.90;;;;;;5062257;28;20199;-78
2022/10/30 03:34:34;;;;;;;;;;;14.00;99.90;;;;;;5061286;28;19940;-78
2022/10/30 03:36:59;;;;;;;;;;;14.00;99.90;;;;;;5062036;28;20107;-78
2022/10/30 03:39:25;;;;;;;;;;;14.00;99.90;;;;;;5062200;28;20315;-77
2022/10/30 03:41:51;;;;;;;;;;;14.00;99.90;;;;;;5062080;28;19931;-77
2022/10/30 03:44:16;;;;;;;;;;;13.90;99.90;;;;;;5062289;28;19916;-78
2022/10/30 03:46:42;;;;;;;;;;;13.90;99.90;;;;;;5062041;28;20212;-77
2022/10/30 03:49:07;;;;;;;;;;;13.90;99.90;;;;;;5062143;28;20116;-77
2022/10/30 03:51:33;;;;;;;;;;;13.90;99.90;;;;;;5062271;28;19966;-77
2022/10/30 03:53:59;;;;;;;;;;;13.80;99.90;;;;;;5062062;28;19921;-78
2022/10/30 03:56:24;;;;;;;;;;;13.90;99.90;;;;;;5061754;28;19909;-77
2022/10/30 03:58:50;;;;;;;;;;;13.90;99.90;;;;;;5062044;28;19909;-77
2022/10/30 04:01:16;;;;;;;;;;;13.90;99.90;;;;;;5062259;28;19943;-77
2022/10/30 04:03:41;;;;;;;;;;;13.90;99.90;;;;;;5062277;28;19909;-77
2022/10/30 04:06:07;;;;;;;;;;;14.00;99.90;;;;;;5065421;28;20154;-78
2022/10/30 04:08:33;;;;;;;;;;;14.00;99.90;;;;;;5065855;28;19909;-78
2022/10/30 04:10:58;;;;;;;;;;;14.00;99.90;;;;;;5065644;28;20109;-77
2022/10/30 04:13:24;;;;;;;;;;;14.00;99.90;;;;;;5065861;28;19920;-76
2022/10/30 04:15:50;;;;;;;;;;;14.00;99.90;;;;;;5065671;28;19909;-76
2022/10/30 04:18:15;;;;;;;;;;;14.00;99.90;;;;;;5064228;28;19908;-76
2022/10/30 04:20:42;;;;;;;;;;;14.00;99.90;;;;;;5065597;28;20239;-78
2022/10/30 04:23:09;;;;;;;;;;;14.00;99.90;;;;;;5064531;28;20223;-77
2022/10/30 04:25:35;;;;;;;;;;;13.90;99.90;;;;;;5064186;28;19954;-77
2022/10/30 04:28:00;;;;;;;;;;;13.90;99.90;;;;;;5065217;28;19971;-78
2022/10/30 04:30:26;;;;;;;;;;;13.90;99.90;;;;;;5065461;28;19980;-78
2022/10/30 04:32:53;;;;;;;;;;;13.80;99.90;;;;;;5065343;28;19920;-78
2022/10/30 04:35:20;;;;;;;;;;;13.70;99.90;;;;;;5064192;28;19917;-78
2022/10/30 04:37:53;;;;;;;;;;;13.70;99.90;;;;;;5057820;28;19913;-78
2022/10/30 04:40:19;;;;;;;;;;;13.70;99.90;;;;;;5043761;28;19917;-77
2022/10/30 04:42:48;;;;;;;;;;;13.60;99.90;;;;;;5044127;28;19942;-77
2022/10/30 04:45:14;;;;;;;;;;;13.60;99.90;;;;;;5045186;28;19914;-78
2022/10/30 04:47:39;;;;;;;;;;;13.50;99.90;;;;;;5045095;28;19917;-76
2022/10/30 04:50:05;;;;;;;;;;;13.50;99.90;;;;;;5060251;28;19913;-78
2022/10/30 04:52:31;;;;;;;;;;;13.50;99.90;;;;;;5043831;28;19913;-77
2022/10/30 04:54:56;;;;;;;;;;;13.40;99.90;;;;;;5044988;28;19908;-77
2022/10/30 04:57:22;;;;;;;;;;;13.40;99.90;;;;;;5045930;28;19917;-79
2022/10/30 04:59:48;;;;;;;;;;;13.40;99.90;;;;;;5058237;28;20113;-77
2022/10/30 05:02:13;;;;;;;;;;;13.40;99.90;;;;;;5057947;28;19954;-78
2022/10/30 05:04:39;;;;;;;;;;;13.40;99.90;;;;;;5064524;28;19917;-78
2022/10/30 05:07:05;;;;;;;;;;;13.30;99.90;;;;;;5064296;28;19909;-77
2022/10/30 05:09:32;;;;;;;;;;;13.20;99.90;;;;;;5046866;28;19909;-77
2022/10/30 05:11:57;;;;;;;;;;;13.10;99.90;;;;;;5063329;28;19909;-78
2022/10/30 05:14:23;;;;;;;;;;;13.10;99.90;;;;;;5064559;28;19920;-76
2022/10/30 05:16:49;;;;;;;;;;;13.00;99.90;;;;;;5064064;28;19924;-78
2022/10/30 05:19:14;;;;;;;;;;;13.00;99.90;;;;;;5064263;28;19962;-77
2022/10/30 05:21:40;;;;;;;;;;;12.90;99.90;;;;;;5064966;28;19909;-77
2022/10/30 05:24:06;;;;;;;;;;;12.90;99.90;;;;;;5064418;28;19916;-77
2022/10/30 05:26:31;;;;;;;;;;;12.90;99.90;;;;;;5057614;28;19913;-77
2022/10/30 05:28:57;;;;;;;;;;;12.90;99.90;;;;;;5057854;28;19936;-77
2022/10/30 05:31:23;;;;;;;;;;;12.90;99.90;;;;;;5060387;28;19943;-77
2022/10/30 05:33:48;;;;;;;;;;;12.90;99.90;;;;;;5060984;28;20275;-76
2022/10/30 05:36:14;;;;;;;;;;;12.90;99.90;;;;;;5058477;28;20104;-77
2022/10/30 05:38:40;;;;;;;;;;;12.90;99.90;;;;;;5055699;28;19912;-76
2022/10/30 05:41:05;;;;;;;;;;;12.90;99.90;;;;;;5063838;28;19916;-77
2022/10/30 05:43:31;;;;;;;;;;;12.90;99.90;;;;;;5063975;28;19908;-76
2022/10/30 05:45:57;;;;;;;;;;;12.80;99.90;;;;;;5079344;28;19916;-76
2022/10/30 05:48:22;;;;;;;;;;;12.90;99.90;;;;;;5063640;28;19909;-76
2022/10/30 05:50:48;;;;;;;;;;;12.90;99.90;;;;;;5063868;28;19909;-76
2022/10/30 05:53:14;;;;;;;;;;;12.90;99.90;;;;;;5063816;28;19932;-77
2022/10/30 05:55:39;;;;;;;;;;;12.90;99.90;;;;;;5079075;28;20222;-76
2022/10/30 05:58:05;;;;;;;;;;;12.90;99.90;;;;;;5063451;28;20406;-76
2022/10/30 06:00:35;;;;;;;;;;;12.90;99.90;;;;;;5073227;28;19909;-77
2022/10/30 06:03:01;;;;;;;;;;;12.90;99.90;;;;;;5051323;28;20108;-76
2022/10/30 06:05:28;;;;;;;;;;;12.90;99.90;;;;;;5071418;28;19909;-76
2022/10/30 06:07:57;;;;;;;;;;;12.80;99.90;;;;;;5056781;28;19959;-77
2022/10/30 06:10:23;;;;;;;;;;;12.80;99.90;;;;;;5078819;28;19915;-77
2022/10/30 06:12:55;;;;;;;;;;;12.80;99.90;;;;;;5062231;28;19916;-77
2022/10/30 06:15:21;;;;;;;;;;;12.80;99.90;;;;;;5062281;28;19916;-77
2022/10/30 06:17:47;;;;;;;;;;;12.80;99.90;;;;;;5057588;28;20104;-77
2022/10/30 06:20:12;;;;;;;;;;;12.70;99.90;;;;;;5061788;28;19913;-76
2022/10/30 06:22:39;;;;;;;;;;;12.60;99.90;;;;;;5054571;28;19931;-76
2022/10/30 06:25:05;;;;;;;;;;;12.60;99.90;;;;;;5056466;28;19924;-75
2022/10/30 06:27:33;;;;;;;;;;;12.60;99.90;;;;;;5054436;28;19921;-77
2022/10/30 06:29:59;;;;;;;;;;;12.60;99.90;;;;;;5061449;28;19927;-76
2022/10/30 06:32:24;;;;;;;;;;;12.60;99.90;;;;;;5063167;28;19975;-75
2022/10/30 06:34:50;;;;;;;;;;;12.60;99.90;;;;;;5063083;28;20014;-75
2022/10/30 06:37:16;;;;;;;;;;;12.70;99.90;;;;;;5062645;28;19954;-75
2022/10/30 06:39:41;;;;;;;;;;;12.70;99.90;;;;;;5063211;28;19909;-76
2022/10/30 06:42:07;;;;;;;;;;;12.70;99.90;;;;;;5062907;28;19915;-76
2022/10/30 06:44:32;;;;;;;;;;;12.70;99.90;;;;;;5061695;28;19908;-75
2022/10/30 06:46:58;;;;;;;;;;;12.80;99.90;;;;;;5061590;28;19954;-75
2022/10/30 06:49:24;;;;;;;;;;;12.80;99.90;;;;;;5061728;28;19971;-75
2022/10/30 06:51:50;;;;;;;;;;;12.80;99.90;;;;;;5055278;28;19909;-81
2022/10/30 06:54:15;;;;;;;;;;;12.90;99.90;;;;;;5049168;28;19919;-81
2022/10/30 06:56:41;;;;;;;;;;;12.90;99.90;;;;;;5060608;28;19948;-81
2022/10/30 06:59:07;;;;;;;;;;;12.90;99.90;;;;;;5060209;28;20164;-79
2022/10/30 07:01:32;;;;;;;;;;;12.90;99.90;;;;;;5043111;28;19916;-79
2022/10/30 07:03:58;;;;;;;;;;;12.90;99.90;;;;;;5046558;28;19909;-80
2022/10/30 07:06:24;;;;;;;;;;;12.90;99.90;;;;;;5062409;28;19932;-75
2022/10/30 07:08:49;;;;;;;;;;;13.00;99.90;;;;;;5062241;28;20309;-77
2022/10/30 07:11:15;;;;;;;;;;;13.00;99.90;;;;;;5062015;28;20096;-75
2022/10/30 07:13:41;;;;;;;;;;;13.00;99.90;;;;;;5062373;28;19913;-75
2022/10/30 07:16:06;;;;;;;;;;;13.00;99.90;;;;;;5062058;28;19908;-75
2022/10/30 07:18:32;;;;;;;;;;;13.00;99.90;;;;;;5062618;28;19909;-75
2022/10/30 07:20:58;;;;;;;;;;;13.10;99.90;;;;;;5061264;28;19909;-75
2022/10/30 07:23:23;;;;;;;;;;;13.10;99.90;;;;;;5062558;28;19917;-75
2022/10/30 07:25:49;;;;;;;;;;;13.10;99.90;;;;;;5062259;28;19917;-75
2022/10/30 07:28:15;;;;;;;;;;;13.20;99.90;;;;;;5062081;28;19931;-74
2022/10/30 07:30:40;;;;;;;;;;;13.20;99.90;;;;;;5057466;28;19949;-75
2022/10/30 07:33:06;;;;;;;;;;;13.20;99.90;;;;;;5058870;28;19921;-74
2022/10/30 07:35:33;;;;;;;;;;;13.20;99.90;;;;;;5058430;28;19909;-75
2022/10/30 07:38:06;;;;;;;;;;;13.30;99.90;;;;;;5056013;28;20231;-75
2022/10/30 07:40:32;;;;;;;;;;;13.30;99.90;;;;;;5065270;28;19909;-74
2022/10/30 07:42:58;;;;;;;;;;;13.40;99.90;;;;;;5057648;28;20161;-73
2022/10/30 07:45:24;;;;;;;;;;;13.40;99.90;;;;;;5065237;28;19917;-76
2022/10/30 07:47:50;;;;;;;;;;;13.50;99.90;;;;;;5066030;28;19915;-78
2022/10/30 07:50:15;;;;;;;;;;;13.60;99.90;;;;;;5081811;28;19908;-76
2022/10/30 07:52:41;;;;;;;;;;;13.60;99.90;;;;;;5081720;28;20245;-77
2022/10/30 07:55:07;;;;;;;;;;;13.80;99.90;;;;;;5066201;28;19972;-77
2022/10/30 07:57:39;;;;;;;;;;;13.90;99.90;;;;;;5073056;28;19928;-77
2022/10/30 08:00:10;;;;;;;;;;;13.90;99.90;;;;;;5064105;28;19943;-78
2022/10/30 08:02:35;;;;;;;;;;;14.10;99.90;;;;;;5058954;28;19912;-78
2022/10/30 08:05:02;;;;;;;;;;;14.20;99.90;;;;;;5059416;28;20147;-77
2022/10/30 08:07:31;;;;;;;;;;;14.20;99.90;;;;;;5060180;28;19944;-77
2022/10/30 08:09:57;;;;;;;;;;;14.30;99.90;;;;;;5063915;28;19924;-76
2022/10/30 08:12:23;;;;;;;;;;;14.30;99.90;;;;;;5058963;28;19913;-77
2022/10/30 08:14:49;;;;;;;;;;;14.40;99.90;;;;;;5060201;28;19927;-77
2022/10/30 08:17:15;;;;;;;;;;;14.40;99.90;;;;;;5064317;28;20116;-77
2022/10/30 08:19:40;;;;;;;;;;;14.40;99.90;;;;;;5057389;28;19909;-77
2022/10/30 08:22:06;;;;;;;;;;;14.40;99.90;;;;;;5065829;28;19909;-77
2022/10/30 08:24:32;;;;;;;;;;;14.40;99.90;;;;;;5061238;28;20092;-77
2022/10/30 08:26:57;;;;;;;;;;;14.40;99.90;;;;;;5064159;28;19994;-76
2022/10/30 08:29:23;;;;;;;;;;;14.50;99.90;;;;;;5057152;28;19909;-77
2022/10/30 08:31:49;;;;;;;;;;;14.60;99.90;;;;;;5057793;28;19960;-77
2022/10/30 08:34:15;;;;;;;;;;;14.70;99.90;;;;;;5054602;28;19939;-75
2022/10/30 08:36:40;;;;;;;;;;;14.80;99.90;;;;;;5061178;28;19908;-75
2022/10/30 08:39:06;;;;;;;;;;;14.80;99.90;;;;;;5046826;28;19909;-75
2022/10/30 08:41:32;;;;;;;;;;;14.90;99.90;;;;;;5060552;28;19916;-75
2022/10/30 08:43:57;;;;;;;;;;;14.90;99.90;;;;;;5080792;28;19916;-75
2022/10/30 08:46:23;;;;;;;;;;;15.00;99.90;;;;;;5064938;28;20227;-75
2022/10/30 08:48:49;;;;;;;;;;;15.00;99.90;;;;;;5063883;28;20120;-75
2022/10/30 08:51:14;;;;;;;;;;;15.10;99.90;;;;;;5063959;28;19982;-75
2022/10/30 08:53:40;;;;;;;;;;;15.20;99.90;;;;;;5080499;28;20000;-75
2022/10/30 08:56:06;;;;;;;;;;;15.30;99.90;;;;;;5064350;28;20089;-76
2022/10/30 08:58:31;;;;;;;;;;;15.40;99.90;;;;;;5065050;28;19943;-77
2022/10/30 09:00:57;;;;;;;;;;;15.40;99.90;;;;;;5063697;28;20123;-75
2022/10/30 09:03:23;;;;;;;;;;;15.50;99.90;;;;;;5080407;28;19909;-75
2022/10/30 09:05:48;;;;;;;;;;;15.50;99.90;;;;;;5064279;28;19917;-75
2022/10/30 09:08:14;;;;;;;;;;;15.70;99.90;;;;;;5063023;28;20165;-76
2022/10/30 09:10:40;;;;;;;;;;;15.70;99.90;;;;;;5046648;28;19908;-75
2022/10/30 09:13:06;;;;;;;;;;;15.80;99.90;;;;;;5061928;28;19988;-74
2022/10/30 09:15:31;;;;;;;;;;;15.90;99.90;;;;;;5059906;28;19913;-74
2022/10/30 09:17:59;;;;;;;;;;;16.00;99.90;;;;;;5054666;28;20131;-76
2022/10/30 09:20:24;;;;;;;;;;;16.10;99.90;;;;;;5059137;28;19952;-74
2022/10/30 09:22:50;;;;;;;;;;;16.10;99.90;;;;;;5053863;28;20085;-74
2022/10/30 09:25:16;;;;;;;;;;;16.10;99.90;;;;;;5056044;28;19908;-74
2022/10/30 09:27:41;;;;;;;;;;;16.20;99.90;;;;;;5055354;28;20166;-74
2022/10/30 09:30:07;;;;;;;;;;;16.30;99.90;;;;;;5064198;28;19909;-74
2022/10/30 09:32:33;;;;;;;;;;;16.60;99.90;;;;;;5079739;28;19919;-74
2022/10/30 09:34:58;;;;;;;;;;;16.70;99.90;;;;;;5059272;28;19917;-74
2022/10/30 09:37:26;;;;;;;;;;;16.80;99.90;;;;;;5057656;28;19927;-73
2022/10/30 09:39:51;;;;;;;;;;;16.90;99.90;;;;;;5055095;28;19947;-74
2022/10/30 09:42:35;;;;;;;;;;;17.00;99.90;;;;;;5058076;28;20211;-74
2022/10/30 09:45:24;;;;;;;;;;;17.00;99.90;;;;;;5054307;28;19935;-74
2022/10/30 09:48:15;;;;;;;;;;;17.20;99.90;;;;;;5054787;28;19921;-74
2022/10/30 09:50:56;;;;;;;;;;;17.40;99.90;;;;;;5055571;28;19909;-74
2022/10/30 09:53:29;;;;;;;;;;;17.40;99.90;;;;;;5063839;28;19913;-74
2022/10/30 09:56:16;;;;;;;;;;;17.60;99.90;;;;;;5061066;28;19921;-74
2022/10/30 09:59:11;;;;;;;;;;;17.70;99.90;;;;;;5049941;28;19999;-74
2022/10/30 10:02:13;;;;;;;;;;;17.80;99.90;;;;;;5053708;28;19913;-74
2022/10/30 10:04:42;;;;;;;;;;;17.90;99.90;;;;;;5059278;28;20265;-73
2022/10/30 10:07:22;;;;;;;;;;;18.10;99.90;;;;;;5046463;28;20257;-74
2022/10/30 10:09:49;;;;;;;;;;;18.10;99.90;;;;;;5052745;28;19955;-74
2022/10/30 10:12:26;;;;;;;;;;;18.20;99.90;;;;;;5035248;28;19972;-74
2022/10/30 10:14:52;;;;;;;;;;;18.40;99.90;;;;;;5053342;28;20250;-74
2022/10/30 10:17:23;;;;;;;;;;;18.60;99.90;;;;;;5059847;28;19913;-74
2022/10/30 10:19:54;;;;;;;;;;;18.70;99.90;;;;;;5040000;28;20258;-75
2022/10/30 10:22:22;;;;;;;;;;;18.90;99.90;;;;;;5058457;28;19927;-74
2022/10/30 10:24:48;;;;;;;;;;;19.10;99.90;;;;;;5061041;28;20107;-73
2022/10/30 10:27:35;;;;;;;;;;;19.30;99.90;;;;;;5078288;28;19952;-75
2022/10/30 10:30:14;;;;;;;;;;;19.50;99.90;;;;;;5062945;28;19927;-75
2022/10/30 10:32:48;;;;;;;;;;;19.80;99.90;;;;;;5059077;28;19928;-75
2022/10/30 10:35:20;;;;;;;;;;;20.00;99.90;;;;;;5053151;28;19963;-75
2022/10/30 10:38:08;;;;;;;;;;;20.20;99.90;;;;;;5052032;28;20991;-75
2022/10/30 10:40:39;;;;;;;;;;;20.50;99.90;;;;;;5061058;28;20150;-75
2022/10/30 10:43:30;;;;;;;;;;;20.70;99.90;;;;;;5054103;28;20070;-75
2022/10/30 10:46:11;;;;;;;;;;;20.90;99.90;;;;;;5028072;28;19913;-75
2022/10/30 10:48:43;;;;;;;;;;;21.20;99.90;;;;;;5042388;28;20227;-75
2022/10/30 10:51:26;;;;;;;;;;;21.50;99.90;;;;;;5042702;28;19909;-75
2022/10/30 10:53:58;;;;;;;;;;;21.80;99.90;;;;;;5025427;28;20221;-75
2022/10/30 10:56:28;;;;;;;;;;;22.00;99.90;;;;;;5041016;28;19917;-75
2022/10/30 10:58:55;;;;;;;;;;;22.00;99.90;;;;;;5025190;28;19917;-75
2022/10/30 11:01:36;;;;;;;;;;;22.10;99.90;;;;;;5025122;28;20179;-75
2022/10/30 11:04:04;;;;;;;;;;;22.00;99.90;;;;;;5029835;28;20000;-75
2022/10/30 11:06:38;;;;;;;;;;;21.80;99.90;;;;;;5044307;28;19915;-75
2022/10/30 11:09:20;;;;;;;;;;;21.70;99.90;;;;;;5061253;28;20270;-75
2022/10/30 11:11:50;;;;;;;;;;;21.60;99.90;;;;;;5061189;28;19908;-75
2022/10/30 11:14:18;;;;;;;;;;;21.50;99.90;;;;;;5060803;28;20325;-75
2022/10/30 11:16:50;;;;;;;;;;;21.40;99.90;;;;;;5061078;28;19959;-75
2022/10/30 11:19:15;;;;;;;;;;;21.40;99.90;;;;;;5061249;28;19916;-75
2022/10/30 11:21:43;;;;;;;;;;;21.40;99.90;;;;;;5062178;28;19909;-75
2022/10/30 11:24:28;;;;;;;;;;;21.40;99.90;;;;;;5061092;28;19939;-75
2022/10/30 11:27:05;;;;;;;;;;;21.40;99.90;;;;;;5059412;28;19921;-75
2022/10/30 11:29:30;;;;;;;;;;;21.40;99.90;;;;;;5077705;28;19917;-75
2022/10/30 11:32:04;;;;;;;;;;;21.40;99.90;;;;;;5054251;28;20310;-75
2022/10/30 11:34:33;;;;;;;;;;;21.40;99.90;;;;;;5077737;28;19987;-75
2022/10/30 11:36:59;;;;;;;;;;;21.40;99.90;;;;;;5060584;28;19923;-76
2022/10/30 11:39:26;;;;;;;;;;;21.40;99.90;;;;;;5062095;28;19940;-75
2022/10/30 11:42:03;;;;;;;;;;;21.40;99.90;;;;;;5077565;28;19916;-75
2022/10/30 11:44:43;;;;;;;;;;;21.40;99.90;;;;;;5077817;28;19908;-75
2022/10/30 11:47:09;;;;;;;;;;;21.50;99.90;;;;;;5060813;28;20185;-75
2022/10/30 11:50:05;;;;;;;;;;;21.50;99.90;;;;;;5060963;28;19917;-75
2022/10/30 11:52:35;;;;;;;;;;;21.60;99.90;;;;;;5073040;28;19979;-75
2022/10/30 11:55:08;;;;;;;;;;;21.70;99.90;;;;;;5077678;28;19908;-76
2022/10/30 11:57:40;;;;;;;;;;;21.70;99.90;;;;;;5058275;28;20230;-76
2022/10/30 12:00:13;;;;;;;;;;;21.80;99.90;;;;;;5050778;28;19914;-76
2022/10/30 12:02:40;;;;;;;;;;;21.90;99.90;;;;;;5060560;28;19908;-77
2022/10/30 12:05:24;;;;;;;;;;;22.30;99.90;;;;;;5054491;28;19954;-77
2022/10/30 12:07:53;;;;;;;;;;;22.80;99.90;;;;;;5054962;28;20206;-77
2022/10/30 12:10:26;;;;;;;;;;;23.40;99.90;;;;;;5057804;28;20204;-75
2022/10/30 12:12:51;;;;;;;;;;;23.70;99.90;;;;;;5056868;28;19917;-75
2022/10/30 12:15:23;;;;;;;;;;;24.20;99.90;;;;;;5059900;28;19979;-74
2022/10/30 12:17:52;;;;;;;;;;;24.60;99.90;;;;;;5058514;28;19917;-74
2022/10/30 12:20:18;;;;;;;;;;;25.20;99.90;;;;;;5053313;28;19916;-74
2022/10/30 12:22:44;;;;;;;;;;;25.60;99.90;;;;;;5061843;28;19917;-74
2022/10/30 12:25:20;;;;;;;;;;;26.00;99.90;;;;;;5078506;28;19951;-74
2022/10/30 12:27:45;;;;;;;;;;;26.40;99.90;;;;;;5064990;28;19916;-74
2022/10/30 12:30:18;;;;;;;;;;;27.00;99.90;;;;;;5065287;28;20104;-74
2022/10/30 12:32:50;;;;;;;;;;;27.60;99.90;;;;;;5064248;28;19927;-74
2022/10/30 12:35:17;;;;;;;;;;;28.10;99.90;;;;;;5065354;28;19915;-75
2022/10/30 12:37:43;;;;;;;;;;;28.80;99.90;;;;;;5063702;28;19921;-74
2022/10/30 12:40:27;;;;;;;;;;;29.70;99.90;;;;;;5060039;28;20269;-73
2022/10/30 12:43:14;;;;;;;;;;;30.40;99.90;;;;;;5040394;28;20428;-74
2022/10/30 12:45:47;;;;;;;;;;;31.10;97.10;;;;;;5060836;28;19921;-74
2022/10/30 12:48:32;;;;;;;;;;;31.70;93.80;;;;;;5041567;28;19913;-74
2022/10/30 12:51:16;;;;;;;;;;;32.10;92.20;;;;;;5072132;28;19913;-74
2022/10/30 12:54:21;;;;;;;;;;;32.30;87.50;;;;;;5059329;28;19925;-74
2022/10/30 12:56:50;;;;;;;;;;;32.80;83.00;;;;;;5075825;28;19916;-74
2022/10/30 12:59:45;;;;;;;;;;;33.00;77.70;;;;;;5056083;28;19909;-74
2022/10/30 13:02:17;;;;;;;;;;;33.20;76.10;;;;;;5056281;28;20156;-75
2022/10/30 13:04:43;;;;;;;;;;;33.60;74.80;;;;;;5035271;28;19913;-74
2022/10/30 13:07:23;;;;;;;;;;;33.60;72.50;;;;;;5080043;28;19917;-74
2022/10/30 13:10:18;;;;;;;;;;;34.00;70.00;;;;;;5064920;28;19932;-75
2022/10/30 13:12:45;;;;;;;;;;;34.20;67.20;;;;;;5063546;28;19913;-74
2022/10/30 13:15:40;;;;;;;;;;;35.00;65.20;;;;;;5080124;28;19909;-74
2022/10/30 13:18:15;;;;;;;;;;;35.40;59.60;;;;;;5077896;28;19909;-74
2022/10/30 13:20:41;;;;;;;;;;;35.80;59.00;;;;;;5063125;28;19915;-74
2022/10/30 13:23:14;;;;;;;;;;;35.80;56.20;;;;;;5063382;28;19909;-74
2022/10/30 13:26:23;;;;;;;;;;;36.10;56.80;;;;;;5063390;28;19923;-75
2022/10/30 13:29:03;;;;;;;;;;;35.90;55.10;;;;;;5062059;28;20155;-74
2022/10/30 13:31:34;;;;;;;;;;;35.90;54.70;;;;;;5062477;28;19913;-74
2022/10/30 13:34:15;;;;;;;;;;;36.30;54.30;;;;;;5055511;28;19925;-74
2022/10/30 13:36:51;;;;;;;;;;;36.00;52.30;;;;;;5062685;28;19909;-74
2022/10/30 13:39:42;;;;;;;;;;;35.30;54.90;;;;;;5062765;28;19972;-74
2022/10/30 13:42:34;;;;;;;;;;;34.00;59.30;;;;;;5062894;28;19937;-74
2022/10/30 13:45:30;;;;;;;;;;;32.40;69.10;;;;;;5063206;28;19916;-74
2022/10/30 13:48:17;;;;;;;;;;;30.90;79.10;;;;;;5063762;28;20085;-73
2022/10/30 13:51:12;;;;;;;;;;;29.40;91.50;;;;;;5062869;28;19946;-74
2022/10/30 13:53:38;;;;;;;;;;;28.30;96.20;;;;;;5062954;28;19935;-74
2022/10/30 13:56:04;;;;;;;;;;;27.40;99.90;;;;;;5045590;28;19924;-73
2022/10/30 13:58:47;;;;;;;;;;;26.70;99.90;;;;;;5063399;28;19908;-73
2022/10/30 14:01:22;;;;;;;;;;;26.10;99.90;;;;;;5062823;28;19954;-74
2022/10/30 14:04:36;;;;;;;;;;;25.60;99.90;;;;;;5062513;28;19909;-74
2022/10/30 14:07:17;;;;;;;;;;;25.10;99.90;;;;;;5081286;28;19908;-74
2022/10/30 14:09:58;;;;;;;;;;;24.70;99.90;;;;;;5081612;28;19908;-73
2022/10/30 14:12:44;;;;;;;;;;;24.40;99.90;;;;;;5045866;28;19940;-74
2022/10/30 14:15:41;;;;;;;;;;;24.10;99.90;;;;;;5063396;28;19929;-73
2022/10/30 14:18:13;;;;;;;;;;;23.90;99.90;;;;;;5061968;28;19916;-73
2022/10/30 14:20:51;;;;;;;;;;;23.70;99.90;;;;;;5063296;28;19909;-73
2022/10/30 14:23:32;;;;;;;;;;;23.50;99.90;;;;;;5062474;28;20115;-73
2022/10/30 14:26:01;;;;;;;;;;;23.30;99.90;;;;;;5062097;28;19917;-73
2022/10/30 14:28:28;;;;;;;;;;;23.10;99.90;;;;;;5062620;28;19951;-73
2022/10/30 14:31:10;;;;;;;;;;;22.80;99.90;;;;;;5062031;28;19946;-73
2022/10/30 14:33:38;;;;;;;;;;;22.70;99.90;;;;;;5061993;28;19935;-74
2022/10/30 14:36:44;;;;;;;;;;;22.50;99.90;;;;;;5062949;28;19927;-73